Time;durP1;ratioP1;P1;durP2;ratioP2;P2;SDS_P1;SDS_P2;PMS_P1;PMS_P2;Temp;Humidity;BMP_temperature;BMP_pressure;BME280_temperature;BME280_humidity;BME280_pressure;Samples;Min_cycle;Max_cycle;Signal;HPM_P1;HPM_P2
2022/01/15 00:01:04;;;;;;;70.20;31.05;;;;;;;;;;5085227;28;20096;-58
2022/01/15 00:03:31;;;;;;;65.45;29.13;;;;;;;;;;5085620;28;20402;-58
2022/01/15 00:05:58;;;;;;;61.58;27.13;;;;;;;;;;5095880;28;20032;-58
2022/01/15 00:08:25;;;;;;;58.40;27.05;;;;;;;;;;5106096;28;20105;-58
2022/01/15 00:10:51;;;;;;;58.15;26.73;;;;;;;;;;5105520;28;20316;-58
2022/01/15 00:13:38;;;;;;;54.72;26.55;;;;;;;;;;5094308;28;20060;-58
2022/01/15 00:16:10;;;;;;;50.45;23.60;;;;;;;;;;5105546;28;20691;-58
2022/01/15 00:18:58;;;;;;;51.00;24.65;;;;;;;;;;5091430;28;20084;-58
2022/01/15 00:21:25;;;;;;;51.33;24.42;;;;;;;;;;5085129;28;20279;-57
2022/01/15 00:23:52;;;;;;;49.22;22.88;;;;;;;;;;5085006;28;20411;-58
2022/01/15 00:26:18;;;;;;;43.67;21.33;;;;;;;;;;5084776;28;20435;-57
2022/01/15 00:28:44;;;;;;;47.08;22.90;;;;;;;;;;5084525;28;20481;-57
2022/01/15 00:31:10;;;;;;;41.85;21.98;;;;;;;;;;5084704;28;20507;-57
2022/01/15 00:33:36;;;;;;;45.20;22.67;;;;;;;;;;5097944;28;20152;-57
2022/01/15 00:36:02;;;;;;;44.65;22.23;;;;;;;;;;5104916;28;20466;-57
2022/01/15 00:38:28;;;;;;;45.92;23.10;;;;;;;;;;5102623;28;20032;-57
2022/01/15 00:40:55;;;;;;;44.58;21.95;;;;;;;;;;5105745;28;20549;-57
2022/01/15 00:43:22;;;;;;;45.00;22.65;;;;;;;;;;5090651;28;20035;-56
2022/01/15 00:45:50;;;;;;;48.67;22.73;;;;;;;;;;5085006;28;20028;-57
2022/01/15 00:48:16;;;;;;;45.65;22.38;;;;;;;;;;5084523;28;20032;-56
2022/01/15 00:50:42;;;;;;;46.90;22.17;;;;;;;;;;5084911;28;20035;-57
2022/01/15 00:53:08;;;;;;;48.40;23.02;;;;;;;;;;5099274;28;20024;-56
2022/01/15 00:55:34;;;;;;;49.65;23.80;;;;;;;;;;5105052;28;20059;-57
2022/01/15 00:58:01;;;;;;;47.00;23.30;;;;;;;;;;5095196;28;20106;-56
2022/01/15 01:00:29;;;;;;;50.05;23.75;;;;;;;;;;5105547;28;20565;-57
2022/01/15 01:02:55;;;;;;;48.78;22.10;;;;;;;;;;5102884;28;20051;-56
2022/01/15 01:05:21;;;;;;;44.10;22.77;;;;;;;;;;5099661;28;20513;-56
2022/01/15 01:07:47;;;;;;;46.67;22.95;;;;;;;;;;5084217;28;20063;-56
2022/01/15 01:23:42;;;;;;;72.72;30.58;;;;;;;;;;5102438;28;20570;-56
2022/01/15 01:26:24;;;;;;;75.55;30.58;;;;;;;;;;5105651;28;20050;-56
2022/01/15 01:29:00;;;;;;;66.50;27.23;;;;;;;;;;5090435;28;20066;-55
2022/01/15 01:31:37;;;;;;;58.75;25.13;;;;;;;;;;5093316;28;20023;-56
2022/01/15 01:34:09;;;;;;;54.75;24.08;;;;;;;;;;5107382;28;20036;-56
2022/01/15 01:39:17;;;;;;;49.45;22.08;;;;;;;;;;5103141;28;20043;-57
2022/01/15 01:41:53;;;;;;;41.20;20.88;;;;;;;;;;5087888;28;20020;-56
2022/01/15 01:44:29;;;;;;;40.42;19.05;;;;;;;;;;5088116;28;20031;-56
2022/01/15 01:47:03;;;;;;;37.97;18.77;;;;;;;;;;5088683;28;20028;-56
2022/01/15 01:49:29;;;;;;;;;;;;;;;;;;5088623;28;20491;-57
2022/01/15 01:51:56;;;;;;;37.05;19.02;;;;;;;;;;5078431;28;19911;-56
2022/01/15 01:54:23;;;;;;;38.85;18.50;;;;;;;;;;5107901;28;20045;-56
2022/01/15 01:56:50;;;;;;;37.90;19.40;;;;;;;;;;5098039;28;20028;-56
2022/01/15 01:59:17;;;;;;;37.00;17.90;;;;;;;;;;5087460;28;20012;-57
2022/01/15 02:01:44;;;;;;;35.08;18.27;;;;;;;;;;5087682;28;20028;-56
2022/01/15 02:04:11;;;;;;;35.08;17.35;;;;;;;;;;5087826;28;20538;-56
2022/01/15 02:06:37;;;;;;;36.35;18.17;;;;;;;;;;5107875;28;20019;-57
2022/01/15 02:09:07;;;;;;;36.08;17.73;;;;;;;;;;5106260;28;20317;-57
2022/01/15 02:11:33;;;;;;;31.95;16.35;;;;;;;;;;5107947;28;20418;-56
2022/01/15 02:13:59;;;;;;;31.25;16.33;;;;;;;;;;5088342;28;20086;-57
2022/01/15 02:16:26;;;;;;;32.15;17.20;;;;;;;;;;5096757;28;20498;-56
2022/01/15 02:18:56;;;;;;;33.33;16.55;;;;;;;;;;5106509;28;20035;-56
2022/01/15 02:24:08;;;;;;;32.88;16.77;;;;;;;;;;5107412;28;20035;-56
2022/01/15 02:26:38;;;;;;;36.95;17.60;;;;;;;;;;5108008;28;20329;-55
2022/01/15 02:29:05;;;;;;;35.20;17.80;;;;;;;;;;5086851;28;20111;-56
2022/01/15 02:31:32;;;;;;;37.67;18.00;;;;;;;;;;5087273;28;20022;-57
2022/01/15 02:33:59;;;;;;;35.53;18.65;;;;;;;;;;5100780;28;20483;-56
2022/01/15 02:36:30;;;;;;;33.25;17.20;;;;;;;;;;5107709;28;20498;-57
2022/01/15 02:38:57;;;;;;;37.28;17.70;;;;;;;;;;5106729;28;20035;-56
2022/01/15 02:41:28;;;;;;;34.40;17.10;;;;;;;;;;5107149;28;20034;-56
2022/01/15 02:43:56;;;;;;;37.08;16.95;;;;;;;;;;5100371;28;20431;-57
2022/01/15 02:46:34;;;;;;;34.53;16.42;;;;;;;;;;5107003;28;20042;-57
2022/01/15 02:49:03;;;;;;;31.15;16.10;;;;;;;;;;5107290;28;20074;-55
2022/01/15 02:51:33;;;;;;;33.05;16.48;;;;;;;;;;5101588;28;20533;-57
2022/01/15 02:53:59;;;;;;;34.53;17.70;;;;;;;;;;5086543;28;20035;-57
2022/01/15 02:56:32;;;;;;;31.92;17.58;;;;;;;;;;5087122;28;20541;-57
2022/01/15 02:58:58;;;;;;;33.88;18.08;;;;;;;;;;5086425;28;20024;-57
2022/01/15 03:01:25;;;;;;;29.95;16.42;;;;;;;;;;5101411;28;20034;-56
2022/01/15 03:03:51;;;;;;;30.98;16.30;;;;;;;;;;5104436;28;20102;-57
2022/01/15 03:06:18;;;;;;;27.95;14.27;;;;;;;;;;5085664;28;20054;-57
2022/01/15 03:08:45;;;;;;;28.25;15.05;;;;;;;;;;5086344;28;20038;-57
2022/01/15 03:11:12;;;;;;;26.80;14.30;;;;;;;;;;5086070;28;20078;-55
2022/01/15 03:13:39;;;;;;;29.33;14.75;;;;;;;;;;5096045;28;20073;-56
2022/01/15 03:16:09;;;;;;;30.02;15.13;;;;;;;;;;5106334;28;20085;-57
2022/01/15 03:18:35;;;;;;;27.95;15.13;;;;;;;;;;5107182;28;20645;-58
2022/01/15 03:21:01;;;;;;;28.45;14.77;;;;;;;;;;5104468;28;20039;-56
2022/01/15 03:23:27;;;;;;;26.88;14.55;;;;;;;;;;5107048;28;20050;-57
2022/01/15 03:25:54;;;;;;;29.75;15.77;;;;;;;;;;5105338;28;20038;-57
2022/01/15 03:28:21;;;;;;;31.33;15.57;;;;;;;;;;5091740;28;20028;-57
2022/01/15 03:30:47;;;;;;;29.67;15.00;;;;;;;;;;5086179;28;20036;-57
2022/01/15 03:33:13;;;;;;;27.27;13.90;;;;;;;;;;5085561;28;20021;-57
2022/01/15 03:35:39;;;;;;;27.40;14.55;;;;;;;;;;5085793;28;20035;-56
2022/01/15 03:38:06;;;;;;;30.42;16.13;;;;;;;;;;5085108;28;20028;-57
2022/01/15 03:40:32;;;;;;;28.58;15.02;;;;;;;;;;5106271;28;20051;-57
2022/01/15 03:42:59;;;;;;;28.60;14.57;;;;;;;;;;5092127;28;20037;-57
2022/01/15 03:45:25;;;;;;;31.52;16.05;;;;;;;;;;5086040;28;20031;-57
2022/01/15 03:47:51;;;;;;;30.63;15.27;;;;;;;;;;5085639;28;20107;-56
2022/01/15 03:50:19;;;;;;;33.40;16.35;;;;;;;;;;5075873;28;20951;-57
2022/01/15 03:52:45;;;;;;;35.67;17.08;;;;;;;;;;5105927;28;20063;-57
2022/01/15 03:55:14;;;;;;;32.15;16.45;;;;;;;;;;5105704;28;20027;-57
2022/01/15 03:57:40;;;;;;;34.13;16.40;;;;;;;;;;5097185;28;20399;-57
2022/01/15 04:00:26;;;;;;;28.75;15.82;;;;;;;;;;5099070;28;20110;-57
2022/01/15 04:02:54;;;;;;;29.40;16.08;;;;;;;;;;5105359;28;20110;-57
2022/01/15 04:05:21;;;;;;;31.45;15.93;;;;;;;;;;5105600;28;20481;-57
2022/01/15 04:07:47;;;;;;;35.58;17.23;;;;;;;;;;5105354;28;20031;-57
2022/01/15 04:10:15;;;;;;;33.55;17.02;;;;;;;;;;5105262;28;20057;-57
2022/01/15 04:12:41;;;;;;;31.10;15.75;;;;;;;;;;5097067;28;20448;-56
2022/01/15 04:15:08;;;;;;;33.38;16.88;;;;;;;;;;5100519;28;20027;-57
2022/01/15 04:17:34;;;;;;;32.10;17.08;;;;;;;;;;5104168;28;20063;-57
2022/01/15 04:20:01;;;;;;;31.67;17.10;;;;;;;;;;5105455;28;20024;-57
2022/01/15 04:22:27;;;;;;;32.20;15.90;;;;;;;;;;5105713;28;20414;-56
2022/01/15 04:24:53;;;;;;;31.83;17.05;;;;;;;;;;5094150;28;20128;-57
2022/01/15 04:27:22;;;;;;;32.25;16.33;;;;;;;;;;5084164;28;20134;-57
2022/01/15 04:29:49;;;;;;;33.22;16.90;;;;;;;;;;5085078;28;20045;-56
2022/01/15 04:32:15;;;;;;;33.60;17.42;;;;;;;;;;5084404;28;20023;-56
2022/01/15 04:34:41;;;;;;;35.13;17.15;;;;;;;;;;5085381;28;20035;-56
2022/01/15 04:37:18;;;;;;;36.25;17.42;;;;;;;;;;5083059;28;20028;-57
2022/01/15 04:39:45;;;;;;;36.13;17.90;;;;;;;;;;5094456;28;20035;-57
2022/01/15 04:42:12;;;;;;;33.42;16.83;;;;;;;;;;5098554;28;20507;-57
2022/01/15 04:44:38;;;;;;;32.53;15.68;;;;;;;;;;5084998;28;20513;-57
2022/01/15 04:47:05;;;;;;;36.42;16.95;;;;;;;;;;5084575;28;20043;-56
2022/01/15 04:49:31;;;;;;;32.60;17.02;;;;;;;;;;5084837;28;20275;-57
2022/01/15 04:51:57;;;;;;;29.85;15.65;;;;;;;;;;5085132;28;20024;-57
2022/01/15 04:54:24;;;;;;;33.42;17.23;;;;;;;;;;5084861;28;20525;-56
2022/01/15 04:56:51;;;;;;;28.45;15.05;;;;;;;;;;5089942;28;20024;-57
2022/01/15 04:59:18;;;;;;;30.67;15.77;;;;;;;;;;5094220;28;20074;-56
2022/01/15 05:01:45;;;;;;;29.05;15.23;;;;;;;;;;5107406;28;20016;-57
2022/01/15 05:04:11;;;;;;;30.92;16.00;;;;;;;;;;5090520;28;20429;-57
2022/01/15 05:06:37;;;;;;;28.38;15.43;;;;;;;;;;5108932;28;20028;-57
2022/01/15 05:09:05;;;;;;;31.17;15.30;;;;;;;;;;5108838;28;20043;-57
2022/01/15 05:14:11;;;;;;;30.02;15.27;;;;;;;;;;5099117;28;20043;-57
2022/01/15 05:16:37;;;;;;;28.48;14.07;;;;;;;;;;5092036;28;20407;-57
2022/01/15 05:19:04;;;;;;;31.50;16.52;;;;;;;;;;5088445;28;20111;-56
2022/01/15 05:21:30;;;;;;;30.98;16.05;;;;;;;;;;5088277;28;20296;-57
2022/01/15 05:23:57;;;;;;;31.38;15.90;;;;;;;;;;5095465;28;20036;-56
2022/01/15 05:26:23;;;;;;;29.27;15.25;;;;;;;;;;5109197;28;20028;-56
2022/01/15 05:28:49;;;;;;;32.25;16.38;;;;;;;;;;5090241;28;20438;-56
2022/01/15 05:31:15;;;;;;;30.63;15.52;;;;;;;;;;5088165;28;20031;-57
2022/01/15 05:33:41;;;;;;;31.25;15.55;;;;;;;;;;5099772;28;20043;-56
2022/01/15 05:36:08;;;;;;;30.40;16.73;;;;;;;;;;5098135;28;20024;-57
2022/01/15 05:38:34;;;;;;;33.85;16.88;;;;;;;;;;5088306;28;20403;-56
2022/01/15 05:41:00;;;;;;;32.33;16.42;;;;;;;;;;5086828;28;20028;-57
2022/01/15 05:43:27;;;;;;;32.03;16.20;;;;;;;;;;5088238;28;20028;-57
2022/01/15 05:45:53;;;;;;;31.00;16.15;;;;;;;;;;5092536;28;20035;-56
2022/01/15 05:48:20;;;;;;;34.97;17.95;;;;;;;;;;5107915;28;20365;-56
2022/01/15 05:50:47;;;;;;;32.38;16.67;;;;;;;;;;5108321;28;20027;-57
2022/01/15 05:53:14;;;;;;;38.10;17.83;;;;;;;;;;5108066;28;20047;-57
2022/01/15 05:55:41;;;;;;;35.78;17.75;;;;;;;;;;5106830;28;20540;-56
2022/01/15 05:58:07;;;;;;;34.28;17.20;;;;;;;;;;5095365;28;20391;-56
2022/01/15 06:00:33;;;;;;;34.88;17.10;;;;;;;;;;5085900;28;20028;-57
2022/01/15 06:03:00;;;;;;;33.53;17.52;;;;;;;;;;5087650;28;20035;-57
2022/01/15 06:05:26;;;;;;;35.85;17.40;;;;;;;;;;5088451;28;20035;-57
2022/01/15 06:07:53;;;;;;;33.78;16.25;;;;;;;;;;5103500;28;20039;-56
2022/01/15 06:10:19;;;;;;;33.88;16.98;;;;;;;;;;5085943;28;20024;-57
2022/01/15 06:12:45;;;;;;;31.05;16.08;;;;;;;;;;5086631;28;20020;-56
2022/01/15 06:15:11;;;;;;;33.85;16.25;;;;;;;;;;5087618;28;20026;-56
2022/01/15 06:17:38;;;;;;;31.77;14.98;;;;;;;;;;5087184;28;20035;-57
2022/01/15 06:20:05;;;;;;;31.33;16.08;;;;;;;;;;5086083;28;20477;-56
2022/01/15 06:22:31;;;;;;;34.20;16.25;;;;;;;;;;5087475;28;20408;-57
2022/01/15 06:24:57;;;;;;;32.28;16.92;;;;;;;;;;5088152;28;20020;-56
2022/01/15 06:27:24;;;;;;;30.48;15.48;;;;;;;;;;5086673;28;20081;-56
2022/01/15 06:29:50;;;;;;;32.15;16.90;;;;;;;;;;5086249;28;20024;-56
2022/01/15 06:32:16;;;;;;;33.08;15.85;;;;;;;;;;5086832;28;20050;-56
2022/01/15 06:34:43;;;;;;;32.85;16.20;;;;;;;;;;5087123;28;20036;-57
2022/01/15 06:37:09;;;;;;;36.40;17.45;;;;;;;;;;5086847;28;20058;-57
2022/01/15 06:39:35;;;;;;;31.75;16.15;;;;;;;;;;5095573;28;20510;-57
2022/01/15 06:42:01;;;;;;;31.92;16.13;;;;;;;;;;5101245;28;20232;-57
2022/01/15 06:44:29;;;;;;;32.00;15.45;;;;;;;;;;5087614;28;20031;-56
2022/01/15 06:46:56;;;;;;;33.35;16.13;;;;;;;;;;5087489;28;20058;-56
2022/01/15 06:49:23;;;;;;;32.22;16.10;;;;;;;;;;5093608;28;20062;-55
2022/01/15 06:51:50;;;;;;;28.73;15.27;;;;;;;;;;5088574;28;20047;-56
2022/01/15 06:54:17;;;;;;;32.10;15.95;;;;;;;;;;5100447;28;20106;-55
2022/01/15 06:56:43;;;;;;;28.90;14.68;;;;;;;;;;5106769;28;20032;-56
2022/01/15 06:59:10;;;;;;;30.98;15.68;;;;;;;;;;5085976;28;20499;-56
2022/01/15 07:01:36;;;;;;;30.05;14.93;;;;;;;;;;5092526;28;20027;-56
2022/01/15 07:04:02;;;;;;;29.45;15.27;;;;;;;;;;5106746;28;20133;-57
2022/01/15 07:06:28;;;;;;;28.83;15.10;;;;;;;;;;5107230;28;20046;-57
2022/01/15 07:08:54;;;;;;;29.50;15.30;;;;;;;;;;5087401;28;20028;-56
2022/01/15 07:11:20;;;;;;;29.75;15.13;;;;;;;;;;5086184;28;20026;-56
2022/01/15 07:13:46;;;;;;;29.83;15.35;;;;;;;;;;5085615;28;20414;-55
2022/01/15 07:16:12;;;;;;;30.60;16.15;;;;;;;;;;5093759;28;20041;-56
2022/01/15 07:18:38;;;;;;;34.03;16.48;;;;;;;;;;5107819;28;20030;-56
2022/01/15 07:21:04;;;;;;;30.80;16.08;;;;;;;;;;5103661;28;20035;-56
2022/01/15 07:23:30;;;;;;;36.15;17.38;;;;;;;;;;5097625;28;20563;-57
2022/01/15 07:25:56;;;;;;;33.03;16.50;;;;;;;;;;5087993;28;20032;-57
2022/01/15 07:28:24;;;;;;;32.50;17.00;;;;;;;;;;5086196;28;20062;-56
2022/01/15 07:30:51;;;;;;;35.53;16.55;;;;;;;;;;5085701;28;20020;-56
2022/01/15 07:33:17;;;;;;;34.50;17.88;;;;;;;;;;5103437;28;20039;-56
2022/01/15 07:35:44;;;;;;;40.40;18.38;;;;;;;;;;5107852;28;20032;-56
2022/01/15 07:38:14;;;;;;;38.85;17.95;;;;;;;;;;5107545;28;20028;-56
2022/01/15 07:40:40;;;;;;;37.22;17.90;;;;;;;;;;5091974;28;20047;-56
2022/01/15 07:43:06;;;;;;;39.78;19.10;;;;;;;;;;5087703;28;20169;-56
2022/01/15 07:45:32;;;;;;;37.00;18.10;;;;;;;;;;5097503;28;20177;-57
2022/01/15 07:47:58;;;;;;;36.50;18.00;;;;;;;;;;5087099;28;20032;-57
2022/01/15 07:50:24;;;;;;;37.00;18.92;;;;;;;;;;5086612;28;20479;-56
2022/01/15 07:52:52;;;;;;;38.38;19.63;;;;;;;;;;5087939;28;20019;-57
2022/01/15 07:55:18;;;;;;;39.33;19.08;;;;;;;;;;5087625;28;20039;-57
2022/01/15 07:57:45;;;;;;;36.53;17.98;;;;;;;;;;5086185;28;20615;-56
2022/01/15 08:00:14;;;;;;;39.35;18.77;;;;;;;;;;5086577;28;20556;-56
2022/01/15 08:02:41;;;;;;;38.38;18.23;;;;;;;;;;5086927;28;20016;-57
2022/01/15 08:05:07;;;;;;;37.75;17.27;;;;;;;;;;5083899;28;20039;-57
2022/01/15 08:07:33;;;;;;;39.47;18.27;;;;;;;;;;5086656;28;20419;-57
2022/01/15 08:10:00;;;;;;;38.45;18.23;;;;;;;;;;5103107;28;20023;-57
2022/01/15 08:12:26;;;;;;;40.03;18.48;;;;;;;;;;5103937;28;20106;-55
2022/01/15 08:14:55;;;;;;;39.97;18.75;;;;;;;;;;5107114;28;20027;-56
2022/01/15 08:17:21;;;;;;;36.95;18.25;;;;;;;;;;5106880;28;20181;-56
2022/01/15 08:19:48;;;;;;;37.85;17.67;;;;;;;;;;5094590;28;20039;-56
2022/01/15 08:22:14;;;;;;;40.00;17.83;;;;;;;;;;5081310;28;20028;-57
2022/01/15 08:24:40;;;;;;;37.70;18.33;;;;;;;;;;5086283;28;20103;-57
2022/01/15 08:27:06;;;;;;;40.88;18.77;;;;;;;;;;5085848;28;20402;-56
2022/01/15 08:29:32;;;;;;;40.25;18.95;;;;;;;;;;5086242;28;20111;-57
2022/01/15 08:31:58;;;;;;;39.28;18.85;;;;;;;;;;5086425;28;20028;-57
2022/01/15 08:34:25;;;;;;;38.13;18.35;;;;;;;;;;5085803;28;20483;-56
2022/01/15 08:36:51;;;;;;;37.80;18.50;;;;;;;;;;5080692;28;20089;-57
2022/01/15 08:39:17;;;;;;;37.58;18.85;;;;;;;;;;5091231;28;20024;-56
2022/01/15 08:41:48;;;;;;;34.22;17.17;;;;;;;;;;5083867;28;20352;-56
2022/01/15 08:44:19;;;;;;;36.33;18.80;;;;;;;;;;5091576;28;20494;-56
2022/01/15 08:46:45;;;;;;;39.10;18.77;;;;;;;;;;5084843;28;20035;-54
2022/01/15 08:49:11;;;;;;;39.38;19.45;;;;;;;;;;5080355;28;20113;-56
2022/01/15 08:51:37;;;;;;;37.00;18.00;;;;;;;;;;5097100;28;20031;-55
2022/01/15 08:54:03;;;;;;;38.50;18.88;;;;;;;;;;5094729;28;20031;-56
2022/01/15 08:56:29;;;;;;;38.88;18.45;;;;;;;;;;5087500;28;20043;-56
2022/01/15 08:58:55;;;;;;;37.90;18.55;;;;;;;;;;5084263;28;20402;-56
2022/01/15 09:01:21;;;;;;;42.22;19.63;;;;;;;;;;5085216;28;20036;-56
2022/01/15 09:03:47;;;;;;;41.05;19.42;;;;;;;;;;5081622;28;20085;-56
2022/01/15 09:06:14;;;;;;;39.65;19.25;;;;;;;;;;5097700;28;20503;-56
2022/01/15 09:08:42;;;;;;;40.45;19.85;;;;;;;;;;5106989;28;20028;-56
2022/01/15 09:11:08;;;;;;;37.60;18.85;;;;;;;;;;5106980;28;20019;-55
2022/01/15 09:13:34;;;;;;;43.45;20.60;;;;;;;;;;5089142;28;20532;-56
2022/01/15 09:16:02;;;;;;;43.15;19.92;;;;;;;;;;5087915;28;20039;-56
2022/01/15 09:18:29;;;;;;;39.85;18.95;;;;;;;;;;5087314;28;20490;-56
2022/01/15 09:20:55;;;;;;;40.42;20.27;;;;;;;;;;5090563;28;20015;-56
2022/01/15 09:23:21;;;;;;;42.72;20.08;;;;;;;;;;5106707;28;20079;-56
2022/01/15 09:25:52;;;;;;;46.08;21.00;;;;;;;;;;5104979;28;20114;-56
2022/01/15 09:31:03;;;;;;;41.85;20.08;;;;;;;;;;5084840;28;20510;-56
2022/01/15 09:33:29;;;;;;;36.35;17.98;;;;;;;;;;5092404;28;20024;-57
2022/01/15 09:35:55;;;;;;;41.65;19.17;;;;;;;;;;5083387;28;20054;-57
2022/01/15 09:38:21;;;;;;;41.15;20.23;;;;;;;;;;5086374;28;20016;-57
2022/01/15 09:40:47;;;;;;;41.28;19.48;;;;;;;;;;5067174;28;20553;-57
2022/01/15 09:43:15;;;;;;;38.75;18.90;;;;;;;;;;5085348;28;20089;-56
2022/01/15 09:45:42;;;;;;;39.22;18.77;;;;;;;;;;5089918;28;20111;-57
2022/01/15 09:48:09;;;;;;;40.42;19.25;;;;;;;;;;5087925;28;20058;-57
2022/01/15 09:50:37;;;;;;;43.80;21.60;;;;;;;;;;5089192;28;20032;-56
2022/01/15 09:53:04;;;;;;;51.17;24.02;;;;;;;;;;5089777;28;20024;-56
2022/01/15 09:55:30;;;;;;;44.30;21.63;;;;;;;;;;5089295;28;20106;-57
2022/01/15 09:57:56;;;;;;;42.85;20.70;;;;;;;;;;5089961;28;20122;-57
2022/01/15 10:00:23;;;;;;;40.88;20.65;;;;;;;;;;5100390;28;20038;-58
2022/01/15 10:02:52;;;;;;;40.75;20.48;;;;;;;;;;5093448;28;20649;-58
2022/01/15 10:05:20;;;;;;;41.33;20.55;;;;;;;;;;5088804;28;20043;-57
2022/01/15 10:07:59;;;;;;;39.78;19.42;;;;;;;;;;5088958;28;20536;-57
2022/01/15 10:10:26;;;;;;;39.45;19.25;;;;;;;;;;5089572;28;20032;-56
2022/01/15 10:12:52;;;;;;;36.38;17.58;;;;;;;;;;5088820;28;20096;-57
2022/01/15 10:15:18;;;;;;;38.05;17.83;;;;;;;;;;5089098;28;20856;-57
2022/01/15 10:17:44;;;;;;;39.08;19.30;;;;;;;;;;5085322;28;20073;-56
2022/01/15 10:20:15;;;;;;;35.13;17.77;;;;;;;;;;5095443;28;20090;-57
2022/01/15 10:22:42;;;;;;;39.35;19.48;;;;;;;;;;5086421;28;20452;-57
2022/01/15 10:25:18;;;;;;;41.28;19.33;;;;;;;;;;5097279;28;20032;-55
2022/01/15 10:27:45;;;;;;;43.40;20.08;;;;;;;;;;5099458;28;20032;-56
2022/01/15 10:30:16;;;;;;;43.15;20.02;;;;;;;;;;5089062;28;20388;-58
2022/01/15 10:33:05;;;;;;;43.22;21.50;;;;;;;;;;5088950;28;20027;-57
2022/01/15 10:35:41;;;;;;;45.50;21.05;;;;;;;;;;5078482;28;20044;-58
2022/01/15 10:38:08;;;;;;;46.28;22.27;;;;;;;;;;5088764;28;20028;-57
2022/01/15 10:40:45;;;;;;;48.70;23.70;;;;;;;;;;5090848;28;20042;-57
2022/01/15 10:43:12;;;;;;;62.55;27.10;;;;;;;;;;5094222;28;20103;-59
2022/01/15 10:45:47;;;;;;;61.75;26.50;;;;;;;;;;5070899;28;20533;-59
2022/01/15 10:48:20;;;;;;;57.80;25.25;;;;;;;;;;5087918;28;20024;-59
2022/01/15 10:50:54;;;;;;;58.70;24.98;;;;;;;;;;5076013;28;20036;-59
2022/01/15 10:53:32;;;;;;;47.40;21.92;;;;;;;;;;5087237;28;20091;-59
2022/01/15 10:55:58;;;;;;;52.67;23.08;;;;;;;;;;5097427;28;20376;-58
2022/01/15 10:58:24;;;;;;;49.90;22.27;;;;;;;;;;5086638;28;20449;-58
2022/01/15 11:00:52;;;;;;;42.70;20.45;;;;;;;;;;5100792;28;20451;-58
2022/01/15 11:03:19;;;;;;;45.03;20.40;;;;;;;;;;5107622;28;20023;-58
2022/01/15 11:05:45;;;;;;;45.83;21.75;;;;;;;;;;5089293;28;20055;-58
2022/01/15 11:08:22;;;;;;;46.05;21.98;;;;;;;;;;5014241;28;20657;-58
2022/01/15 11:11:07;;;;;;;45.25;21.30;;;;;;;;;;5039087;28;20133;-58
2022/01/15 11:13:37;;;;;;;45.20;21.30;;;;;;;;;;5049706;28;20036;-58
2022/01/15 11:16:05;;;;;;;46.60;20.95;;;;;;;;;;5043055;28;20039;-58
2022/01/15 11:18:32;;;;;;;45.67;21.70;;;;;;;;;;5055312;28;20049;-58
2022/01/15 11:21:00;;;;;;;52.03;22.83;;;;;;;;;;5048451;28;20029;-58
2022/01/15 11:23:28;;;;;;;43.45;20.52;;;;;;;;;;5046856;28;20025;-58
2022/01/15 11:25:55;;;;;;;47.60;21.60;;;;;;;;;;5038033;28;20399;-57
2022/01/15 11:28:25;;;;;;;47.53;21.30;;;;;;;;;;5051619;28;20574;-57
2022/01/15 11:30:59;;;;;;;44.78;21.05;;;;;;;;;;5067744;28;20609;-57
2022/01/15 11:33:39;;;;;;;48.28;21.33;;;;;;;;;;5061511;28;20032;-57
2022/01/15 11:36:06;;;;;;;43.72;21.75;;;;;;;;;;5050724;28;20056;-57
2022/01/15 11:38:43;;;;;;;50.83;22.88;;;;;;;;;;5058664;28;20044;-57
2022/01/15 11:41:28;;;;;;;47.80;22.88;;;;;;;;;;5047179;28;20516;-57
2022/01/15 11:43:54;;;;;;;50.83;23.75;;;;;;;;;;5046765;28;20040;-57
2022/01/15 11:46:23;;;;;;;45.33;21.80;;;;;;;;;;5042569;28;20067;-57
2022/01/15 11:48:50;;;;;;;50.40;23.85;;;;;;;;;;5037348;28;20103;-58
2022/01/15 11:51:18;;;;;;;51.97;24.15;;;;;;;;;;4949376;28;20056;-58
2022/01/15 11:53:47;;;;;;;55.13;25.42;;;;;;;;;;5035827;28;20043;-59
2022/01/15 11:56:17;;;;;;;57.22;26.10;;;;;;;;;;5035093;28;20041;-58
2022/01/15 11:58:43;;;;;;;52.00;24.70;;;;;;;;;;5027240;28;20124;-58
2022/01/15 12:01:29;;;;;;;58.30;26.75;;;;;;;;;;5027932;28;20040;-59
2022/01/15 12:04:15;;;;;;;51.92;24.70;;;;;;;;;;5035161;28;20048;-58
2022/01/15 12:06:59;;;;;;;53.88;23.98;;;;;;;;;;5042892;28;20060;-59
2022/01/15 12:09:36;;;;;;;52.00;24.55;;;;;;;;;;5049744;28;20036;-57
2022/01/15 12:12:03;;;;;;;51.58;24.45;;;;;;;;;;4970781;28;20049;-59
2022/01/15 12:14:50;;;;;;;51.03;24.55;;;;;;;;;;5027282;28;20068;-59
2022/01/15 12:17:42;;;;;;;51.42;23.25;;;;;;;;;;5028875;28;20035;-59
2022/01/15 12:20:09;;;;;;;56.97;25.67;;;;;;;;;;5048954;28;20147;-59
2022/01/15 12:22:36;;;;;;;58.92;25.75;;;;;;;;;;5067280;28;20024;-59
2022/01/15 12:25:06;;;;;;;55.55;25.70;;;;;;;;;;5067161;28;20027;-59
2022/01/15 12:27:33;;;;;;;56.42;25.77;;;;;;;;;;5057027;28;20048;-59
2022/01/15 12:30:02;;;;;;;55.60;26.02;;;;;;;;;;5047182;28;20025;-59
2022/01/15 12:32:30;;;;;;;56.05;26.08;;;;;;;;;;5056835;28;20071;-59
2022/01/15 12:34:56;;;;;;;52.65;24.63;;;;;;;;;;5066291;28;20028;-59
2022/01/15 12:37:23;;;;;;;53.47;25.23;;;;;;;;;;5049302;28;20028;-59
2022/01/15 12:39:49;;;;;;;50.40;22.95;;;;;;;;;;5047082;28;20512;-59
2022/01/15 12:42:17;;;;;;;51.42;24.30;;;;;;;;;;5044439;28;20029;-59
2022/01/15 12:44:53;;;;;;;50.45;23.70;;;;;;;;;;5041980;28;20133;-59
2022/01/15 12:47:22;;;;;;;45.85;21.80;;;;;;;;;;5032430;28;20025;-58
2022/01/15 12:49:50;;;;;;;48.10;23.23;;;;;;;;;;5045774;28;20582;-59
2022/01/15 12:52:20;;;;;;;49.28;22.67;;;;;;;;;;5044031;28;20064;-59
2022/01/15 12:54:47;;;;;;;48.58;23.80;;;;;;;;;;5047871;28;20035;-59
2022/01/15 12:57:13;;;;;;;45.67;23.25;;;;;;;;;;5044703;28;20016;-59
2022/01/15 12:59:39;;;;;;;51.28;24.25;;;;;;;;;;5045813;28;20025;-59
2022/01/15 13:02:06;;;;;;;53.55;25.10;;;;;;;;;;5045171;28;20087;-59
2022/01/15 13:04:33;;;;;;;52.38;25.17;;;;;;;;;;5044092;28;20028;-59
2022/01/15 13:07:00;;;;;;;49.35;24.13;;;;;;;;;;5045585;28;20033;-60
2022/01/15 13:09:43;;;;;;;57.00;26.83;;;;;;;;;;5046447;28;20021;-59
2022/01/15 13:12:11;;;;;;;56.75;26.77;;;;;;;;;;5044617;28;20514;-59
2022/01/15 13:14:41;;;;;;;53.03;24.95;;;;;;;;;;5044244;28;20029;-59
2022/01/15 13:17:20;;;;;;;51.13;24.60;;;;;;;;;;5045288;28;20044;-59
2022/01/15 13:19:47;;;;;;;55.38;25.27;;;;;;;;;;5060785;28;20021;-60
2022/01/15 13:22:13;;;;;;;53.63;25.10;;;;;;;;;;5046592;28;20063;-60
2022/01/15 13:24:39;;;;;;;49.42;24.42;;;;;;;;;;5048105;28;20484;-60
2022/01/15 13:27:05;;;;;;;51.42;23.85;;;;;;;;;;5048681;28;20372;-60
2022/01/15 13:29:38;;;;;;;48.92;24.25;;;;;;;;;;5064835;28;20036;-60
2022/01/15 13:32:07;;;;;;;50.55;25.02;;;;;;;;;;5047722;28;20113;-60
2022/01/15 13:34:34;;;;;;;52.72;24.77;;;;;;;;;;5064357;28;20021;-60
2022/01/15 13:37:11;;;;;;;49.35;24.13;;;;;;;;;;5049312;28;20792;-60
2022/01/15 13:39:38;;;;;;;47.38;23.80;;;;;;;;;;5049464;28;20117;-60
2022/01/15 13:42:04;;;;;;;46.53;22.95;;;;;;;;;;5048213;28;20071;-60
2022/01/15 13:44:34;;;;;;;49.53;23.90;;;;;;;;;;5049101;28;20048;-60
2022/01/15 13:47:11;;;;;;;47.95;22.88;;;;;;;;;;5047582;28;20021;-60
2022/01/15 13:55:16;;;;;;;50.85;23.65;;;;;;;;;;5048762;28;20055;-60
2022/01/15 13:57:42;;;;;;;48.00;23.63;;;;;;;;;;5048215;28;20033;-60
2022/01/15 14:00:15;;;;;;;47.40;23.17;;;;;;;;;;5048206;28;20037;-59
2022/01/15 14:02:44;;;;;;;46.00;22.87;;;;;;;;;;5048778;28;20033;-59
2022/01/15 14:05:15;;;;;;;47.38;22.95;;;;;;;;;;5048464;28;20025;-59
2022/01/15 14:07:41;;;;;;;48.65;24.25;;;;;;;;;;5048549;28;20576;-59
2022/01/15 14:10:09;;;;;;;47.97;23.55;;;;;;;;;;5046894;28;20037;-59
2022/01/15 14:12:36;;;;;;;48.05;23.52;;;;;;;;;;5047722;28;20104;-59
2022/01/15 14:15:03;;;;;;;45.47;22.92;;;;;;;;;;5048011;28;20067;-60
2022/01/15 14:17:30;;;;;;;50.70;23.40;;;;;;;;;;5048404;28;20112;-60
2022/01/15 14:22:32;;;;;;;49.38;23.92;;;;;;;;;;5048370;28;20021;-60
2022/01/15 14:25:16;;;;;;;43.20;22.77;;;;;;;;;;5048623;28;20037;-60
2022/01/15 14:27:44;;;;;;;47.97;23.55;;;;;;;;;;5047451;28;20025;-60
2022/01/15 14:30:10;;;;;;;47.08;22.65;;;;;;;;;;5046199;28;20064;-60
2022/01/15 14:32:36;;;;;;;49.50;23.63;;;;;;;;;;5048096;28;20032;-59
2022/01/15 14:35:03;;;;;;;44.50;21.52;;;;;;;;;;5047786;28;20029;-59
2022/01/15 14:37:30;;;;;;;46.50;22.00;;;;;;;;;;5048229;28;20031;-59
2022/01/15 14:39:56;;;;;;;51.17;24.17;;;;;;;;;;5048764;28;20587;-59
2022/01/15 14:42:23;;;;;;;50.22;23.30;;;;;;;;;;5047280;28;20021;-60
2022/01/15 14:44:50;;;;;;;46.42;22.42;;;;;;;;;;5048033;28;20029;-59
2022/01/15 14:47:16;;;;;;;48.35;22.88;;;;;;;;;;5047881;28;20134;-59
2022/01/15 14:49:42;;;;;;;45.88;22.55;;;;;;;;;;5046668;28;20025;-59
2022/01/15 14:52:08;;;;;;;48.38;23.38;;;;;;;;;;5046957;28;20029;-60
2022/01/15 14:54:35;;;;;;;44.78;22.55;;;;;;;;;;5047051;28;20587;-60
2022/01/15 14:57:01;;;;;;;44.03;22.67;;;;;;;;;;5046281;28;20032;-60